Eships Dana — ZDJT6 — position and weather

sailwx.info

Track history (hours):
 
Tides and Currents Weather Stations Pressure Air Temp Water Temp Dewpoint Dewpoint Depression Visibility Wind Speed Wind Dir Waves Ship Positions

Eships Dana

Last reported at 2015-Jul-04 09:34 UTC. Time now 2015-Jul-04 10:10 UTC.
Position N 51°50' E 002°29'.

Length 116 m; draft 6.4 m.

Type: Tanker. MMSI: 236566000.

Date/timePositionNaut miles runAvg speedWind from/ knotsBaromVisibWave heightAir tempDewpointWater temp
2015-Jul-04 09:34N 51°50' E 002°29'1615.5
2015-Jul-04 08:33N 52°04' E 002°40'1515.3
2015-Jul-04 07:33N 52°18' E 002°48'2914.4
2015-Jul-04 05:33N 52°45' E 003°07'1413.6
2015-Jul-04 04:33N 52°57' E 003°17'1413.5
2015-Jul-04 03:33N 53°10' E 003°23'1414.1
2015-Jul-04 02:32N 53°24' E 003°30'1515.0
2015-Jul-04 01:34N 53°38' E 003°37'1514.9
2015-Jul-04 00:33N 53°49' E 003°53'1515.5
2015-Jul-03 23:33N 53°59' E 004°14'2813.9
2015-Jul-03 21:32N 54°26' E 004°24'1514.9
2015-Jul-03 20:33N 54°41' E 004°23'1715.1
2015-Jul-03 19:26N 54°58' E 004°22'22314.8
2015-Jul-03 04:24N 58°39' E 005°06'1112.9
2015-Jul-03 03:33N 58°50' E 005°05'1313.0
2015-Jul-03 02:33N 59°03' E 005°10'1211.9
2015-Jul-03 01:33N 59°09' E 005°29'7 6.6
2015-Jul-03 00:31N 59°16' E 005°29'0 0.0
2015-Jul-02 23:28N 59°16' E 005°29'0 0.0
2015-Jul-02 22:31N 59°16' E 005°29'0 0.0
2015-Jul-02 21:31N 59°16' E 005°29'0 0.0
2015-Jul-02 20:31N 59°16' E 005°29'0 0.0
2015-Jul-02 19:31N 59°16' E 005°29'0 0.0
2015-Jul-02 18:31N 59°16' E 005°29'0 0.0
2015-Jul-02 17:31N 59°16' E 005°29'0 0.0
2015-Jul-02 16:31N 59°16' E 005°29'0 0.0
2015-Jul-02 15:31N 59°16' E 005°29'0 0.0
2015-Jul-02 14:28N 59°16' E 005°29'0 0.0
2015-Jul-02 13:31N 59°16' E 005°29'0 0.0
2015-Jul-02 12:31N 59°16' E 005°29'0 0.0
2015-Jul-02 11:31N 59°16' E 005°29'2 2.2
2015-Jul-02 10:22N 59°14' E 005°32'0 0.0
2015-Jul-02 09:25N 59°14' E 005°32'0 0.0
2015-Jul-02 08:28N 59°14' E 005°32'0 0.0
2015-Jul-02 07:25N 59°14' E 005°32'0 0.0
2015-Jul-02 05:28N 59°14' E 005°32'0 0.0
2015-Jul-02 04:31N 59°14' E 005°32'0 0.0
2015-Jul-02 03:31N 59°14' E 005°32'0 0.0
2015-Jul-02 02:28N 59°14' E 005°32'0 0.0
2015-Jul-02 01:31N 59°14' E 005°32'0 0.0
2015-Jul-02 00:31N 59°14' E 005°32'0 0.0
2015-Jul-01 23:10N 59°14' E 005°32'0 0.0
2015-Jul-01 22:16N 59°14' E 005°32'0 0.0
2015-Jul-01 21:22N 59°14' E 005°32'0 0.1
2015-Jul-01 20:31N 59°14' E 005°32'0 0.1
2015-Jul-01 19:31N 59°14' E 005°32'0 0.0
2015-Jul-01 18:31N 59°14' E 005°32'0 0.0
2015-Jul-01 17:31N 59°14' E 005°32'0 0.0
2015-Jul-01 16:31N 59°14' E 005°32'0 0.0
2015-Jul-01 15:31N 59°14' E 005°32'1 0.5
2015-Jul-01 14:33N 59°14' E 005°31'9 8.7
2015-Jul-01 13:33N 59°06' E 005°24'10 9.8
2015-Jul-01 12:33N 58°59' E 005°10'1111.0
2015-Jul-01 11:33N 58°48' E 005°10'1413.9
2015-Jul-01 10:33N 58°34' E 005°10'1414.3
2015-Jul-01 09:33N 58°20' E 005°05'1514.6
2015-Jul-01 08:30N 58°05' E 005°03'15815.2
2015-Jun-30 22:06N 55°29' E 004°21'815.0
2015-Jun-30 21:32N 55°20' E 004°19'1615.3
2015-Jun-30 20:31N 55°05' E 004°16'1915.3
2015-Jun-30 19:15N 54°45' E 004°13'1015.3
2015-Jun-30 18:34N 54°35' E 004°11'1515.3
2015-Jun-30 17:33N 54°20' E 004°09'1515.3
2015-Jun-30 16:33N 54°04' E 004°06'2713.2
2015-Jun-30 14:31N 53°52' E 003°25'3215.5
2015-Jun-30 12:28N 53°25' E 002°57'1415.7
2015-Jun-30 11:33N 53°12' E 002°46'1515.0
2015-Jun-30 10:34N 52°58' E 002°39'1514.8
2015-Jun-30 09:34N 52°43' E 002°39'1414.0
2015-Jun-30 08:33N 52°29' E 002°40'1413.7
2015-Jun-30 07:33N 52°16' E 002°41'1413.5
2015-Jun-30 06:33N 52°02' E 002°39'1111.3
2015-Jun-30 05:34N 51°51' E 002°43'1414.0
2015-Jun-30 04:33N 51°41' E 002°29'1514.6
2015-Jun-30 03:34N 51°29' E 002°15'1515.1
2015-Jun-30 02:33N 51°15' E 002°04'1515.4
2015-Jun-30 01:33N 51°06' E 001°45'1616.1
2015-Jun-30 00:33N 50°54' E 001°27'1616.1
2015-Jun-29 23:33N 50°39' E 001°17'1615.8
2015-Jun-29 22:33N 50°29' E 000°58'1715.5
2015-Jun-29 21:28N 50°23' E 000°33'1615.8
2015-Jun-29 20:29N 50°18' E 000°10'1314.3
2015-Jun-29 19:32N 50°10' W 000°06'1615.9
2015-Jun-29 18:33N 49°54' W 000°10'1515.1
2015-Jun-29 17:33N 49°39' W 000°08'1110.7
2015-Jun-29 16:33N 49°29' W 000°02'0 0.3
2015-Jun-29 15:32N 49°29' W 000°02'0 0.0
2015-Jun-29 14:32N 49°29' W 000°02'0 0.0
2015-Jun-29 13:32N 49°29' W 000°02'0 0.0
2015-Jun-29 12:29N 49°29' W 000°02'0 0.0
2015-Jun-29 11:32N 49°29' W 000°02'0 0.0
2015-Jun-29 10:32N 49°29' W 000°02'0 0.1
2015-Jun-29 09:32N 49°29' W 000°01'0 0.0
2015-Jun-29 08:32N 49°29' W 000°01'0 0.0
2015-Jun-29 07:32N 49°29' W 000°01'0 0.0
2015-Jun-29 06:32N 49°29' W 000°01'0 0.0
2015-Jun-29 05:32N 49°29' W 000°01'0 0.0
2015-Jun-29 04:32N 49°29' W 000°01'0 0.0
2015-Jun-29 03:32N 49°29' W 000°02'0 0.0
2015-Jun-29 02:32N 49°29' W 000°02'0 0.1
2015-Jun-29 01:32N 49°29' W 000°02'0 0.0
2015-Jun-29 00:32N 49°29' W 000°02'0 0.0
2015-Jun-28 23:32N 49°29' W 000°02'0 0.0
2015-Jun-28 22:32N 49°29' W 000°02'0 0.1
2015-Jun-28 21:32N 49°29' W 000°02'0 0.0
2015-Jun-28 20:29N 49°29' W 000°02'0 0.0
2015-Jun-28 19:32N 49°29' W 000°02'0 0.0
2015-Jun-28 18:32N 49°29' W 000°02'0 0.0
2015-Jun-28 17:32N 49°29' W 000°01'0 0.1
2015-Jun-28 16:32N 49°29' W 000°01'0 0.0
2015-Jun-28 15:32N 49°29' W 000°02'0 0.0
2015-Jun-28 14:32N 49°29' W 000°02'0 0.0
2015-Jun-28 13:32N 49°29' W 000°02'0 0.0
2015-Jun-28 12:32N 49°29' W 000°02'0 0.1
2015-Jun-28 11:32N 49°29' W 000°02'0 0.0
2015-Jun-28 10:32N 49°29' W 000°02'0 0.1
2015-Jun-28 09:32N 49°29' W 000°02'0 0.0
2015-Jun-28 08:32N 49°29' W 000°02'0 0.0
2015-Jun-28 07:32N 49°29' W 000°01'0 0.0
2015-Jun-28 06:32N 49°29' W 000°01'0 0.0
2015-Jun-28 05:29N 49°29' W 000°01'0 0.0
2015-Jun-28 04:32N 49°29' W 000°01'0 0.1
2015-Jun-28 03:32N 49°29' W 000°02'0 0.0
2015-Jun-28 02:32N 49°29' W 000°02'0 0.0
2015-Jun-28 01:32N 49°29' W 000°02'0 0.0
2015-Jun-28 00:32N 49°29' W 000°02'0 0.0
2015-Jun-27 23:32N 49°29' W 000°02'0 0.0
2015-Jun-27 22:32N 49°29' W 000°02'0 0.0
2015-Jun-27 21:32N 49°29' W 000°02'0 0.1
2015-Jun-27 20:32N 49°29' W 000°02'0 0.1
2015-Jun-27 19:32N 49°29' W 000°01'0 0.0
2015-Jun-27 18:32N 49°29' W 000°01'0 0.0
2015-Jun-27 17:32N 49°29' W 000°01'0 0.1
2015-Jun-27 16:32N 49°29' W 000°01'0 0.0
2015-Jun-27 15:32N 49°29' W 000°01'0 0.0
2015-Jun-27 14:32N 49°29' W 000°01'0 0.0
2015-Jun-27 13:32N 49°29' W 000°02'0 0.0
2015-Jun-27 12:32N 49°29' W 000°02'0 0.0
2015-Jun-27 11:32N 49°29' W 000°01'0 0.0
2015-Jun-27 10:32N 49°29' W 000°01'0 0.0
2015-Jun-27 09:32N 49°29' W 000°01'0 0.0
2015-Jun-27 08:32N 49°29' W 000°01'0 0.0
2015-Jun-27 07:32N 49°29' W 000°01'0 0.0
2015-Jun-27 06:32N 49°29' W 000°01'0 0.0
2015-Jun-27 05:32N 49°29' W 000°01'0 0.0
2015-Jun-27 04:32N 49°29' W 000°01'0 0.0
2015-Jun-27 03:32N 49°29' W 000°01'0 0.0
2015-Jun-27 02:32N 49°29' W 000°01'0 0.0
2015-Jun-27 01:32N 49°29' W 000°01'0 0.0
2015-Jun-27 00:32N 49°29' W 000°01'0 0.0
2015-Jun-26 23:32N 49°29' W 000°01'0 0.1
2015-Jun-26 22:32N 49°29' W 000°02'0 0.0
2015-Jun-26 21:32N 49°29' W 000°02'0 0.0
2015-Jun-26 20:32N 49°29' W 000°02'0 0.0
2015-Jun-26 19:32N 49°29' W 000°02'0 0.1
2015-Jun-26 18:32N 49°29' W 000°01'0 0.0
2015-Jun-26 17:29N 49°29' W 000°01'0 0.1
2015-Jun-26 16:32N 49°29' W 000°01'7 7.1
2015-Jun-26 15:33N 49°28' E 000°09'2 2.0
2015-Jun-26 14:31N 49°29' E 000°12'0 0.0
2015-Jun-26 13:31N 49°29' E 000°12'0 0.0
2015-Jun-26 12:31N 49°29' E 000°12'0 0.0
2015-Jun-26 11:31N 49°29' E 000°12'0 0.0
2015-Jun-26 10:31N 49°29' E 000°12'0 0.0
2015-Jun-26 09:31N 49°29' E 000°12'0 0.0
2015-Jun-26 08:31N 49°29' E 000°12'0 0.0
2015-Jun-26 07:31N 49°29' E 000°12'0 0.0
2015-Jun-26 06:31N 49°29' E 000°12'0 0.0
2015-Jun-26 05:31N 49°29' E 000°12'0 0.0
2015-Jun-26 04:31N 49°29' E 000°12'0 0.0
2015-Jun-26 03:31N 49°29' E 000°12'0 0.0
2015-Jun-26 02:31N 49°29' E 000°12'0 0.0
2015-Jun-26 01:31N 49°29' E 000°12'0 0.0
2015-Jun-26 00:31N 49°29' E 000°12'0 0.0
2015-Jun-25 23:28N 49°29' E 000°12'0 0.0
2015-Jun-25 22:33N 49°29' E 000°12'1 1.2
2015-Jun-25 21:34N 49°29' E 000°10'2 1.6
2015-Jun-25 20:34N 49°28' E 000°08'1010.3
2015-Jun-25 19:33N 49°33' W 000°06'8 7.8
2015-Jun-25 18:33N 49°41' W 000°08'1413.8
2015-Jun-25 17:32N 49°55' W 000°10'1414.1
2015-Jun-25 16:32N 50°09' W 000°07'1413.7
2015-Jun-25 15:30N 50°23' W 000°04'1111.8
2015-Jun-25 14:33N 50°29' E 000°11'1313.5
2015-Jun-25 13:33N 50°34' E 000°30'1414.5
2015-Jun-25 12:33N 50°42' E 000°50'1615.7
2015-Jun-25 11:33N 50°53' E 001°08'1515.5
2015-Jun-25 10:33N 51°03' E 001°26'1414.3
2015-Jun-25 09:34N 51°12' E 001°43'1413.6
2015-Jun-25 08:34N 51°25' E 001°53'1313.0
2015-Jun-25 07:33N 51°35' E 002°06'1313.4
2015-Jun-25 06:33N 51°47' E 002°15'1413.7
2015-Jun-25 05:34N 52°01' E 002°14'1514.8
2015-Jun-25 04:31N 52°16' E 002°12'1515.5
2015-Jun-25 03:33N 52°31' E 002°10'1615.8
2015-Jun-25 02:32N 52°47' E 002°07'1515.0
2015-Jun-25 01:33N 52°57' E 001°50'1615.7
2015-Jun-25 00:33N 53°07' E 001°28'1615.5
2015-Jun-24 23:33N 53°19' E 001°12'3515.4
2015-Jun-24 21:15N 53°49' E 000°41'1015.0
2015-Jun-24 20:33N 53°57' E 000°31'1514.9
2015-Jun-24 19:33N 54°11' E 000°19'1414.3
2015-Jun-24 18:33N 54°24' E 000°10'1414.1
2015-Jun-24 17:34N 54°37' E 000°01'1413.9
2015-Jun-24 16:33N 54°49' W 000°12'1413.7
2015-Jun-24 15:33N 55°00' W 000°26'1513.7
2015-Jun-24 14:28N 55°12' W 000°41'1313.6
2015-Jun-24 13:31N 55°22' W 000°54'  
Track history (hours):
 
Tides and Currents Weather Stations Pressure Air Temp Water Temp Dewpoint Dewpoint Depression Visibility Wind Speed Wind Dir Waves Ship Positions

Eships Dana

Last reported at 2015-Jul-04 09:34 UTC. Time now 2015-Jul-04 10:10 UTC.
Position N 51°50' E 002°29'.

Length 116 m; draft 6.4 m.

Type: Tanker. MMSI: 236566000.

Date/timePositionNaut miles runAvg speedWind from/ knotsBaromVisibWave heightAir tempDewpointWater temp
2015-Jul-04 09:34N 51°50' E 002°29'1615.5
2015-Jul-04 08:33N 52°04' E 002°40'1515.3
2015-Jul-04 07:33N 52°18' E 002°48'2914.4
2015-Jul-04 05:33N 52°45' E 003°07'1413.6
2015-Jul-04 04:33N 52°57' E 003°17'1413.5
2015-Jul-04 03:33N 53°10' E 003°23'1414.1
2015-Jul-04 02:32N 53°24' E 003°30'1515.0
2015-Jul-04 01:34N 53°38' E 003°37'1514.9
2015-Jul-04 00:33N 53°49' E 003°53'1515.5
2015-Jul-03 23:33N 53°59' E 004°14'2813.9
2015-Jul-03 21:32N 54°26' E 004°24'1514.9
2015-Jul-03 20:33N 54°41' E 004°23'1715.1
2015-Jul-03 19:26N 54°58' E 004°22'22314.8
2015-Jul-03 04:24N 58°39' E 005°06'1112.9
2015-Jul-03 03:33N 58°50' E 005°05'1313.0
2015-Jul-03 02:33N 59°03' E 005°10'1211.9
2015-Jul-03 01:33N 59°09' E 005°29'7 6.6
2015-Jul-03 00:31N 59°16' E 005°29'0 0.0
2015-Jul-02 23:28N 59°16' E 005°29'0 0.0
2015-Jul-02 22:31N 59°16' E 005°29'0 0.0
2015-Jul-02 21:31N 59°16' E 005°29'0 0.0
2015-Jul-02 20:31N 59°16' E 005°29'0 0.0
2015-Jul-02 19:31N 59°16' E 005°29'0 0.0
2015-Jul-02 18:31N 59°16' E 005°29'0 0.0
2015-Jul-02 17:31N 59°16' E 005°29'0 0.0
2015-Jul-02 16:31N 59°16' E 005°29'0 0.0
2015-Jul-02 15:31N 59°16' E 005°29'0 0.0
2015-Jul-02 14:28N 59°16' E 005°29'0 0.0
2015-Jul-02 13:31N 59°16' E 005°29'0 0.0
2015-Jul-02 12:31N 59°16' E 005°29'0 0.0
2015-Jul-02 11:31N 59°16' E 005°29'2 2.2
2015-Jul-02 10:22N 59°14' E 005°32'0 0.0
2015-Jul-02 09:25N 59°14' E 005°32'0 0.0
2015-Jul-02 08:28N 59°14' E 005°32'0 0.0
2015-Jul-02 07:25N 59°14' E 005°32'0 0.0
2015-Jul-02 05:28N 59°14' E 005°32'0 0.0
2015-Jul-02 04:31N 59°14' E 005°32'0 0.0
2015-Jul-02 03:31N 59°14' E 005°32'0 0.0
2015-Jul-02 02:28N 59°14' E 005°32'0 0.0
2015-Jul-02 01:31N 59°14' E 005°32'0 0.0
2015-Jul-02 00:31N 59°14' E 005°32'0 0.0
2015-Jul-01 23:10N 59°14' E 005°32'0 0.0
2015-Jul-01 22:16N 59°14' E 005°32'0 0.0
2015-Jul-01 21:22N 59°14' E 005°32'0 0.1
2015-Jul-01 20:31N 59°14' E 005°32'0 0.1
2015-Jul-01 19:31N 59°14' E 005°32'0 0.0
2015-Jul-01 18:31N 59°14' E 005°32'0 0.0
2015-Jul-01 17:31N 59°14' E 005°32'0 0.0
2015-Jul-01 16:31N 59°14' E 005°32'0 0.0
2015-Jul-01 15:31N 59°14' E 005°32'1 0.5
2015-Jul-01 14:33N 59°14' E 005°31'9 8.7
2015-Jul-01 13:33N 59°06' E 005°24'10 9.8
2015-Jul-01 12:33N 58°59' E 005°10'1111.0
2015-Jul-01 11:33N 58°48' E 005°10'1413.9
2015-Jul-01 10:33N 58°34' E 005°10'1414.3
2015-Jul-01 09:33N 58°20' E 005°05'1514.6
2015-Jul-01 08:30N 58°05' E 005°03'15815.2
2015-Jun-30 22:06N 55°29' E 004°21'815.0
2015-Jun-30 21:32N 55°20' E 004°19'1615.3
2015-Jun-30 20:31N 55°05' E 004°16'1915.3
2015-Jun-30 19:15N 54°45' E 004°13'1015.3
2015-Jun-30 18:34N 54°35' E 004°11'1515.3
2015-Jun-30 17:33N 54°20' E 004°09'1515.3
2015-Jun-30 16:33N 54°04' E 004°06'2713.2
2015-Jun-30 14:31N 53°52' E 003°25'3215.5
2015-Jun-30 12:28N 53°25' E 002°57'1415.7
2015-Jun-30 11:33N 53°12' E 002°46'1515.0
2015-Jun-30 10:34N 52°58' E 002°39'1514.8
2015-Jun-30 09:34N 52°43' E 002°39'1414.0
2015-Jun-30 08:33N 52°29' E 002°40'1413.7
2015-Jun-30 07:33N 52°16' E 002°41'1413.5
2015-Jun-30 06:33N 52°02' E 002°39'1111.3
2015-Jun-30 05:34N 51°51' E 002°43'1414.0
2015-Jun-30 04:33N 51°41' E 002°29'1514.6
2015-Jun-30 03:34N 51°29' E 002°15'1515.1
2015-Jun-30 02:33N 51°15' E 002°04'1515.4
2015-Jun-30 01:33N 51°06' E 001°45'1616.1
2015-Jun-30 00:33N 50°54' E 001°27'1616.1
2015-Jun-29 23:33N 50°39' E 001°17'1615.8
2015-Jun-29 22:33N 50°29' E 000°58'1715.5
2015-Jun-29 21:28N 50°23' E 000°33'1615.8
2015-Jun-29 20:29N 50°18' E 000°10'1314.3
2015-Jun-29 19:32N 50°10' W 000°06'1615.9
2015-Jun-29 18:33N 49°54' W 000°10'1515.1
2015-Jun-29 17:33N 49°39' W 000°08'1110.7
2015-Jun-29 16:33N 49°29' W 000°02'0 0.3
2015-Jun-29 15:32N 49°29' W 000°02'0 0.0
2015-Jun-29 14:32N 49°29' W 000°02'0 0.0
2015-Jun-29 13:32N 49°29' W 000°02'0 0.0
2015-Jun-29 12:29N 49°29' W 000°02'0 0.0
2015-Jun-29 11:32N 49°29' W 000°02'0 0.0
2015-Jun-29 10:32N 49°29' W 000°02'0 0.1
2015-Jun-29 09:32N 49°29' W 000°01'0 0.0
2015-Jun-29 08:32N 49°29' W 000°01'0 0.0
2015-Jun-29 07:32N 49°29' W 000°01'0 0.0
2015-Jun-29 06:32N 49°29' W 000°01'0 0.0
2015-Jun-29 05:32N 49°29' W 000°01'0 0.0
2015-Jun-29 04:32N 49°29' W 000°01'0 0.0
2015-Jun-29 03:32N 49°29' W 000°02'0 0.0
2015-Jun-29 02:32N 49°29' W 000°02'0 0.1
2015-Jun-29 01:32N 49°29' W 000°02'0 0.0
2015-Jun-29 00:32N 49°29' W 000°02'0 0.0
2015-Jun-28 23:32N 49°29' W 000°02'0 0.0
2015-Jun-28 22:32N 49°29' W 000°02'0 0.1
2015-Jun-28 21:32N 49°29' W 000°02'0 0.0
2015-Jun-28 20:29N 49°29' W 000°02'0 0.0
2015-Jun-28 19:32N 49°29' W 000°02'0 0.0
2015-Jun-28 18:32N 49°29' W 000°02'0 0.0
2015-Jun-28 17:32N 49°29' W 000°01'0 0.1
2015-Jun-28 16:32N 49°29' W 000°01'0 0.0
2015-Jun-28 15:32N 49°29' W 000°02'0 0.0
2015-Jun-28 14:32N 49°29' W 000°02'0 0.0
2015-Jun-28 13:32N 49°29' W 000°02'0 0.0
2015-Jun-28 12:32N 49°29' W 000°02'0 0.1
2015-Jun-28 11:32N 49°29' W 000°02'0 0.0
2015-Jun-28 10:32N 49°29' W 000°02'0 0.1
2015-Jun-28 09:32N 49°29' W 000°02'0 0.0
2015-Jun-28 08:32N 49°29' W 000°02'0 0.0
2015-Jun-28 07:32N 49°29' W 000°01'0 0.0
2015-Jun-28 06:32N 49°29' W 000°01'0 0.0
2015-Jun-28 05:29N 49°29' W 000°01'0 0.0
2015-Jun-28 04:32N 49°29' W 000°01'0 0.1
2015-Jun-28 03:32N 49°29' W 000°02'0 0.0
2015-Jun-28 02:32N 49°29' W 000°02'0 0.0
2015-Jun-28 01:32N 49°29' W 000°02'0 0.0
2015-Jun-28 00:32N 49°29' W 000°02'0 0.0
2015-Jun-27 23:32N 49°29' W 000°02'0 0.0
2015-Jun-27 22:32N 49°29' W 000°02'0 0.0
2015-Jun-27 21:32N 49°29' W 000°02'0 0.1
2015-Jun-27 20:32N 49°29' W 000°02'0 0.1
2015-Jun-27 19:32N 49°29' W 000°01'0 0.0
2015-Jun-27 18:32N 49°29' W 000°01'0 0.0
2015-Jun-27 17:32N 49°29' W 000°01'0 0.1
2015-Jun-27 16:32N 49°29' W 000°01'0 0.0
2015-Jun-27 15:32N 49°29' W 000°01'0 0.0
2015-Jun-27 14:32N 49°29' W 000°01'0 0.0
2015-Jun-27 13:32N 49°29' W 000°02'0 0.0
2015-Jun-27 12:32N 49°29' W 000°02'0 0.0
2015-Jun-27 11:32N 49°29' W 000°01'0 0.0
2015-Jun-27 10:32N 49°29' W 000°01'0 0.0
2015-Jun-27 09:32N 49°29' W 000°01'0 0.0
2015-Jun-27 08:32N 49°29' W 000°01'0 0.0
2015-Jun-27 07:32N 49°29' W 000°01'0 0.0
2015-Jun-27 06:32N 49°29' W 000°01'0 0.0
2015-Jun-27 05:32N 49°29' W 000°01'0 0.0
2015-Jun-27 04:32N 49°29' W 000°01'0 0.0
2015-Jun-27 03:32N 49°29' W 000°01'0 0.0
2015-Jun-27 02:32N 49°29' W 000°01'0 0.0
2015-Jun-27 01:32N 49°29' W 000°01'0 0.0
2015-Jun-27 00:32N 49°29' W 000°01'0 0.0
2015-Jun-26 23:32N 49°29' W 000°01'0 0.1
2015-Jun-26 22:32N 49°29' W 000°02'0 0.0
2015-Jun-26 21:32N 49°29' W 000°02'0 0.0
2015-Jun-26 20:32N 49°29' W 000°02'0 0.0
2015-Jun-26 19:32N 49°29' W 000°02'0 0.1
2015-Jun-26 18:32N 49°29' W 000°01'0 0.0
2015-Jun-26 17:29N 49°29' W 000°01'0 0.1
2015-Jun-26 16:32N 49°29' W 000°01'7 7.1
2015-Jun-26 15:33N 49°28' E 000°09'2 2.0
2015-Jun-26 14:31N 49°29' E 000°12'0 0.0
2015-Jun-26 13:31N 49°29' E 000°12'0 0.0
2015-Jun-26 12:31N 49°29' E 000°12'0 0.0
2015-Jun-26 11:31N 49°29' E 000°12'0 0.0
2015-Jun-26 10:31N 49°29' E 000°12'0 0.0
2015-Jun-26 09:31N 49°29' E 000°12'0 0.0
2015-Jun-26 08:31N 49°29' E 000°12'0 0.0
2015-Jun-26 07:31N 49°29' E 000°12'0 0.0
2015-Jun-26 06:31N 49°29' E 000°12'0 0.0
2015-Jun-26 05:31N 49°29' E 000°12'0 0.0
2015-Jun-26 04:31N 49°29' E 000°12'0 0.0
2015-Jun-26 03:31N 49°29' E 000°12'0 0.0
2015-Jun-26 02:31N 49°29' E 000°12'0 0.0
2015-Jun-26 01:31N 49°29' E 000°12'0 0.0
2015-Jun-26 00:31N 49°29' E 000°12'0 0.0
2015-Jun-25 23:28N 49°29' E 000°12'0 0.0
2015-Jun-25 22:33N 49°29' E 000°12'1 1.2
2015-Jun-25 21:34N 49°29' E 000°10'2 1.6
2015-Jun-25 20:34N 49°28' E 000°08'1010.3
2015-Jun-25 19:33N 49°33' W 000°06'8 7.8
2015-Jun-25 18:33N 49°41' W 000°08'1413.8
2015-Jun-25 17:32N 49°55' W 000°10'1414.1
2015-Jun-25 16:32N 50°09' W 000°07'1413.7
2015-Jun-25 15:30N 50°23' W 000°04'1111.8
2015-Jun-25 14:33N 50°29' E 000°11'1313.5
2015-Jun-25 13:33N 50°34' E 000°30'1414.5
2015-Jun-25 12:33N 50°42' E 000°50'1615.7
2015-Jun-25 11:33N 50°53' E 001°08'1515.5
2015-Jun-25 10:33N 51°03' E 001°26'1414.3
2015-Jun-25 09:34N 51°12' E 001°43'1413.6
2015-Jun-25 08:34N 51°25' E 001°53'1313.0
2015-Jun-25 07:33N 51°35' E 002°06'1313.4
2015-Jun-25 06:33N 51°47' E 002°15'1413.7
2015-Jun-25 05:34N 52°01' E 002°14'1514.8
2015-Jun-25 04:31N 52°16' E 002°12'1515.5
2015-Jun-25 03:33N 52°31' E 002°10'1615.8
2015-Jun-25 02:32N 52°47' E 002°07'1515.0
2015-Jun-25 01:33N 52°57' E 001°50'1615.7
2015-Jun-25 00:33N 53°07' E 001°28'1615.5
2015-Jun-24 23:33N 53°19' E 001°12'3515.4
2015-Jun-24 21:15N 53°49' E 000°41'1015.0
2015-Jun-24 20:33N 53°57' E 000°31'1514.9
2015-Jun-24 19:33N 54°11' E 000°19'1414.3
2015-Jun-24 18:33N 54°24' E 000°10'1414.1
2015-Jun-24 17:34N 54°37' E 000°01'1413.9
2015-Jun-24 16:33N 54°49' W 000°12'1413.7
2015-Jun-24 15:33N 55°00' W 000°26'1513.7
2015-Jun-24 14:28N 55°12' W 000°41'1313.6
2015-Jun-24 13:31N 55°22' W 000°54'  

Dump ship's entire track history